Emden — 3ERP5 — position and weather

sailwx.info

Track history (hours):
 
Tides and Currents Weather Stations Pressure Air Temp Water Temp Dewpoint Dewpoint Depression Visibility Wind Speed Wind Dir Waves Ship Positions

Emden

Last reported at 2014-Sep-01 11:32 UTC. Time now 2014-Sep-01 11:44 UTC.
Position N 53°20' E 007°11'.

Length 177 m; draft 7.3 m.

Type: Ship. MMSI: 355051000.

Date/timePositionNaut miles runAvg speedWind from/ knotsBaromVisibWave heightAir tempDewpointWater temp
2014-Sep-01 11:32N 53°20' E 007°11'0 0.0
2014-Sep-01 10:29N 53°20' E 007°11'0 0.0
2014-Sep-01 09:29N 53°20' E 007°11'0 0.0
2014-Sep-01 08:29N 53°20' E 007°11'0 0.0
2014-Sep-01 07:32N 53°20' E 007°11'0 0.0
2014-Sep-01 06:29N 53°20' E 007°11'0 0.0
2014-Sep-01 05:32N 53°20' E 007°11'0 0.0
2014-Sep-01 04:29N 53°20' E 007°11'0 0.0
2014-Sep-01 03:32N 53°20' E 007°11'0 0.0
2014-Sep-01 02:32N 53°20' E 007°11'0 0.0
2014-Sep-01 01:32N 53°20' E 007°11'0 0.0
2014-Sep-01 00:32N 53°20' E 007°11'0 0.0
2014-Aug-31 23:32N 53°20' E 007°11'0 0.0
2014-Aug-31 22:32N 53°20' E 007°11'0 0.0
2014-Aug-31 21:32N 53°20' E 007°11'0 0.0
2014-Aug-31 20:31N 53°20' E 007°11'0 0.0
2014-Aug-31 19:31N 53°20' E 007°11'0 0.0
2014-Aug-31 18:31N 53°20' E 007°11'0 0.0
2014-Aug-31 17:31N 53°20' E 007°11'0 0.0
2014-Aug-31 16:31N 53°20' E 007°11'0 0.0
2014-Aug-31 15:31N 53°20' E 007°11'0 0.0
2014-Aug-31 14:31N 53°20' E 007°11'1 1.1
2014-Aug-31 13:33N 53°20' E 007°09'1010.0
2014-Aug-31 12:33N 53°26' E 006°55'1716.2
2014-Aug-31 11:32N 53°36' E 006°34'9 9.6
2014-Aug-31 10:34N 53°39' E 006°19'8 8.1
2014-Aug-31 09:33N 53°41' E 006°05'9 9.2
2014-Aug-31 08:34N 53°38' E 005°50'1413.8
2014-Aug-31 07:33N 53°34' E 005°28'1615.6
2014-Aug-31 06:33N 53°29' E 005°04'1514.8
2014-Aug-31 05:33N 53°22' E 004°41'1414.2
2014-Aug-31 04:33N 53°10' E 004°30'1413.8
2014-Aug-31 03:33N 52°57' E 004°19'1313.4
2014-Aug-31 02:33N 52°46' E 004°09'1413.5
2014-Aug-31 01:33N 52°35' E 003°54'1313.5
2014-Aug-31 00:33N 52°26' E 003°38'1413.3
2014-Aug-30 23:31N 52°17' E 003°21'4613.6
2014-Aug-30 20:10N 51°43' E 002°32'914.7
2014-Aug-30 19:33N 51°36' E 002°23'1515.1
2014-Aug-30 18:33N 51°23' E 002°10'1414.5
2014-Aug-30 17:33N 51°11' E 001°57'1616.0
2014-Aug-30 16:33N 51°01' E 001°37'3615.8
2014-Aug-30 14:17N 50°33' E 001°02'1115.0
2014-Aug-30 13:33N 50°29' E 000°46'1515.5
2014-Aug-30 12:33N 50°25' E 000°23'  
2014-Aug-27 21:26N 38°55' W 009°51'2412.3
2014-Aug-27 19:29N 38°32' W 009°41'1313.4
2014-Aug-27 18:32N 38°25' W 009°28'1513.1
2014-Aug-27 17:25N 38°20' W 009°10'1112.0
2014-Aug-27 16:32N 38°26' W 008°59'7 6.8
2014-Aug-27 15:29N 38°31' W 008°52'0 0.0
2014-Aug-27 14:29N 38°31' W 008°52'0 0.0
2014-Aug-27 13:29N 38°31' W 008°52'0 0.0
2014-Aug-27 12:29N 38°31' W 008°52'0 0.0
2014-Aug-27 11:23N 38°31' W 008°52'0 0.0
2014-Aug-27 10:29N 38°31' W 008°52'0 0.0
2014-Aug-27 09:29N 38°31' W 008°52'0 0.0
2014-Aug-27 08:32N 38°31' W 008°52'0 0.0
2014-Aug-27 07:29N 38°31' W 008°52'0 0.0
2014-Aug-27 06:20N 38°31' W 008°52'0 0.0
2014-Aug-27 05:29N 38°31' W 008°52'0 0.0
2014-Aug-27 04:29N 38°31' W 008°52'0 0.0
2014-Aug-27 03:32N 38°31' W 008°52'0 0.0
2014-Aug-27 02:29N 38°31' W 008°52'0 0.0
2014-Aug-27 01:29N 38°31' W 008°52'0 0.0
2014-Aug-27 00:29N 38°31' W 008°52'0 0.0
2014-Aug-26 23:32N 38°31' W 008°52'0 0.0
2014-Aug-26 22:29N 38°31' W 008°52'0 0.0
2014-Aug-26 21:29N 38°31' W 008°52'0 0.0
2014-Aug-26 20:17N 38°31' W 008°52'0 0.1
2014-Aug-26 19:26N 38°31' W 008°52'5 4.9
2014-Aug-26 18:27N 38°28' W 008°57'6 6.7
2014-Aug-26 17:33N 38°23' W 009°02'10 9.7
2014-Aug-26 16:32N 38°20' W 009°14'1414.3
2014-Aug-26 15:32N 38°24' W 009°31'  
2014-Aug-23 23:33N 50°20' W 001°12'1615.5
2014-Aug-23 22:33N 50°24' W 000°48'1413.8
2014-Aug-23 21:32N 50°28' W 000°27'1313.1
2014-Aug-23 20:33N 50°31' W 000°07'1211.9
2014-Aug-23 19:33N 50°34' E 000°11'56 3.5
2014-Aug-23 03:31N 51°26' E 000°44'0 0.0
2014-Aug-23 02:31N 51°26' E 000°44'0 0.0
2014-Aug-23 01:31N 51°26' E 000°44'0 0.0
2014-Aug-23 00:31N 51°26' E 000°44'0 0.0
2014-Aug-22 23:31N 51°26' E 000°44'0 0.0
2014-Aug-22 22:31N 51°26' E 000°44'0 0.0
2014-Aug-22 21:34N 51°26' E 000°44'0 0.1
2014-Aug-22 20:33N 51°26' E 000°44'1111.0
2014-Aug-22 19:33N 51°30' E 001°01'1514.7
2014-Aug-22 18:33N 51°28' E 001°25'7 6.8
2014-Aug-22 17:34N 51°29' E 001°35'1413.6
2014-Aug-22 16:34N 51°34' E 001°56'1414.2
2014-Aug-22 15:33N 51°42' E 002°14'  
Track history (hours):
 
Tides and Currents Weather Stations Pressure Air Temp Water Temp Dewpoint Dewpoint Depression Visibility Wind Speed Wind Dir Waves Ship Positions

Emden

Last reported at 2014-Sep-01 11:32 UTC. Time now 2014-Sep-01 11:44 UTC.
Position N 53°20' E 007°11'.

Length 177 m; draft 7.3 m.

Type: Ship. MMSI: 355051000.

Date/timePositionNaut miles runAvg speedWind from/ knotsBaromVisibWave heightAir tempDewpointWater temp
2014-Sep-01 11:32N 53°20' E 007°11'0 0.0
2014-Sep-01 10:29N 53°20' E 007°11'0 0.0
2014-Sep-01 09:29N 53°20' E 007°11'0 0.0
2014-Sep-01 08:29N 53°20' E 007°11'0 0.0
2014-Sep-01 07:32N 53°20' E 007°11'0 0.0
2014-Sep-01 06:29N 53°20' E 007°11'0 0.0
2014-Sep-01 05:32N 53°20' E 007°11'0 0.0
2014-Sep-01 04:29N 53°20' E 007°11'0 0.0
2014-Sep-01 03:32N 53°20' E 007°11'0 0.0
2014-Sep-01 02:32N 53°20' E 007°11'0 0.0
2014-Sep-01 01:32N 53°20' E 007°11'0 0.0
2014-Sep-01 00:32N 53°20' E 007°11'0 0.0
2014-Aug-31 23:32N 53°20' E 007°11'0 0.0
2014-Aug-31 22:32N 53°20' E 007°11'0 0.0
2014-Aug-31 21:32N 53°20' E 007°11'0 0.0
2014-Aug-31 20:31N 53°20' E 007°11'0 0.0
2014-Aug-31 19:31N 53°20' E 007°11'0 0.0
2014-Aug-31 18:31N 53°20' E 007°11'0 0.0
2014-Aug-31 17:31N 53°20' E 007°11'0 0.0
2014-Aug-31 16:31N 53°20' E 007°11'0 0.0
2014-Aug-31 15:31N 53°20' E 007°11'0 0.0
2014-Aug-31 14:31N 53°20' E 007°11'1 1.1
2014-Aug-31 13:33N 53°20' E 007°09'1010.0
2014-Aug-31 12:33N 53°26' E 006°55'1716.2
2014-Aug-31 11:32N 53°36' E 006°34'9 9.6
2014-Aug-31 10:34N 53°39' E 006°19'8 8.1
2014-Aug-31 09:33N 53°41' E 006°05'9 9.2
2014-Aug-31 08:34N 53°38' E 005°50'1413.8
2014-Aug-31 07:33N 53°34' E 005°28'1615.6
2014-Aug-31 06:33N 53°29' E 005°04'1514.8
2014-Aug-31 05:33N 53°22' E 004°41'1414.2
2014-Aug-31 04:33N 53°10' E 004°30'1413.8
2014-Aug-31 03:33N 52°57' E 004°19'1313.4
2014-Aug-31 02:33N 52°46' E 004°09'1413.5
2014-Aug-31 01:33N 52°35' E 003°54'1313.5
2014-Aug-31 00:33N 52°26' E 003°38'1413.3
2014-Aug-30 23:31N 52°17' E 003°21'4613.6
2014-Aug-30 20:10N 51°43' E 002°32'914.7
2014-Aug-30 19:33N 51°36' E 002°23'1515.1
2014-Aug-30 18:33N 51°23' E 002°10'1414.5
2014-Aug-30 17:33N 51°11' E 001°57'1616.0
2014-Aug-30 16:33N 51°01' E 001°37'3615.8
2014-Aug-30 14:17N 50°33' E 001°02'1115.0
2014-Aug-30 13:33N 50°29' E 000°46'1515.5
2014-Aug-30 12:33N 50°25' E 000°23'  
2014-Aug-27 21:26N 38°55' W 009°51'2412.3
2014-Aug-27 19:29N 38°32' W 009°41'1313.4
2014-Aug-27 18:32N 38°25' W 009°28'1513.1
2014-Aug-27 17:25N 38°20' W 009°10'1112.0
2014-Aug-27 16:32N 38°26' W 008°59'7 6.8
2014-Aug-27 15:29N 38°31' W 008°52'0 0.0
2014-Aug-27 14:29N 38°31' W 008°52'0 0.0
2014-Aug-27 13:29N 38°31' W 008°52'0 0.0
2014-Aug-27 12:29N 38°31' W 008°52'0 0.0
2014-Aug-27 11:23N 38°31' W 008°52'0 0.0
2014-Aug-27 10:29N 38°31' W 008°52'0 0.0
2014-Aug-27 09:29N 38°31' W 008°52'0 0.0
2014-Aug-27 08:32N 38°31' W 008°52'0 0.0
2014-Aug-27 07:29N 38°31' W 008°52'0 0.0
2014-Aug-27 06:20N 38°31' W 008°52'0 0.0
2014-Aug-27 05:29N 38°31' W 008°52'0 0.0
2014-Aug-27 04:29N 38°31' W 008°52'0 0.0
2014-Aug-27 03:32N 38°31' W 008°52'0 0.0
2014-Aug-27 02:29N 38°31' W 008°52'0 0.0
2014-Aug-27 01:29N 38°31' W 008°52'0 0.0
2014-Aug-27 00:29N 38°31' W 008°52'0 0.0
2014-Aug-26 23:32N 38°31' W 008°52'0 0.0
2014-Aug-26 22:29N 38°31' W 008°52'0 0.0
2014-Aug-26 21:29N 38°31' W 008°52'0 0.0
2014-Aug-26 20:17N 38°31' W 008°52'0 0.1
2014-Aug-26 19:26N 38°31' W 008°52'5 4.9
2014-Aug-26 18:27N 38°28' W 008°57'6 6.7
2014-Aug-26 17:33N 38°23' W 009°02'10 9.7
2014-Aug-26 16:32N 38°20' W 009°14'1414.3
2014-Aug-26 15:32N 38°24' W 009°31'  
2014-Aug-23 23:33N 50°20' W 001°12'1615.5
2014-Aug-23 22:33N 50°24' W 000°48'1413.8
2014-Aug-23 21:32N 50°28' W 000°27'1313.1
2014-Aug-23 20:33N 50°31' W 000°07'1211.9
2014-Aug-23 19:33N 50°34' E 000°11'56 3.5
2014-Aug-23 03:31N 51°26' E 000°44'0 0.0
2014-Aug-23 02:31N 51°26' E 000°44'0 0.0
2014-Aug-23 01:31N 51°26' E 000°44'0 0.0
2014-Aug-23 00:31N 51°26' E 000°44'0 0.0
2014-Aug-22 23:31N 51°26' E 000°44'0 0.0
2014-Aug-22 22:31N 51°26' E 000°44'0 0.0
2014-Aug-22 21:34N 51°26' E 000°44'0 0.1
2014-Aug-22 20:33N 51°26' E 000°44'1111.0
2014-Aug-22 19:33N 51°30' E 001°01'1514.7
2014-Aug-22 18:33N 51°28' E 001°25'7 6.8
2014-Aug-22 17:34N 51°29' E 001°35'1413.6
2014-Aug-22 16:34N 51°34' E 001°56'1414.2
2014-Aug-22 15:33N 51°42' E 002°14'  

Dump ship's entire track history